Time,TemperatureF,DewpointF,PressureIn,WindDirection,WindDirectionDegrees,WindSpeedMPH,WindSpeedGustMPH,Humidity,HourlyPrecipIn,Conditions,Clouds,dailyrainin,SoftwareType,DateUTC
2013-07-23 00:12:00,65.0,-99.9,-100.00,North,-999,-999.0,-999.0,-999,0.00,,,0.02,,2013-07-23 04:12:00,
2013-07-23 00:22:00,65.0,-99.9,-100.00,North,-999,-999.0,-999.0,-999,0.00,,,0.02,,2013-07-23 04:22:00,
2013-07-23 00:32:00,65.0,-99.9,-100.00,North,-999,-999.0,-999.0,-999,0.00,,,0.02,,2013-07-23 04:32:00,
2013-07-23 00:43:00,65.0,-99.9,-100.00,North,-999,-999.0,-999.0,-999,0.00,,,0.02,,2013-07-23 04:43:00,
2013-07-23 01:02:00,64.0,-99.9,-100.00,North,-999,-999.0,-999.0,-999,0.00,,,0.02,,2013-07-23 05:02:00,
2013-07-23 01:11:00,64.0,-99.9,-100.00,North,-999,-999.0,-999.0,-999,0.00,,,0.02,,2013-07-23 05:11:00,
2013-07-23 01:22:00,64.0,-99.9,-100.00,North,-999,-999.0,-999.0,-999,0.00,,,0.02,,2013-07-23 05:22:00,
2013-07-23 01:33:00,64.0,-99.9,-100.00,North,-999,-999.0,-999.0,-999,0.00,,,0.02,,2013-07-23 05:33:00,
2013-07-23 01:44:00,64.0,-99.9,-100.00,North,-999,-999.0,-999.0,-999,0.00,,,0.02,,2013-07-23 05:44:00,
2013-07-23 02:11:00,64.0,-99.9,-100.00,North,-999,-999.0,-999.0,-999,0.01,,,0.03,,2013-07-23 06:11:00,
2013-07-23 02:22:00,64.0,-99.9,-100.00,North,-999,-999.0,-999.0,-999,0.01,,,0.03,,2013-07-23 06:22:00,
2013-07-23 02:33:00,64.0,-99.9,-100.00,North,-999,-999.0,-999.0,-999,0.01,,,0.03,,2013-07-23 06:33:00,
2013-07-23 02:43:00,64.0,-99.9,-100.00,North,-999,-999.0,-999.0,-999,0.01,,,0.03,,2013-07-23 06:43:00,
2013-07-23 03:02:00,63.0,-99.9,-100.00,North,-999,-999.0,-999.0,-999,0.01,,,0.04,,2013-07-23 07:02:00,
2013-07-23 03:12:00,63.0,-99.9,-100.00,North,-999,-999.0,-999.0,-999,0.01,,,0.04,,2013-07-23 07:12:00,
2013-07-23 03:22:00,63.0,-99.9,-100.00,North,-999,-999.0,-999.0,-999,0.01,,,0.04,,2013-07-23 07:22:00,
2013-07-23 03:33:00,63.0,-99.9,-100.00,North,-999,-999.0,-999.0,-999,0.01,,,0.04,,2013-07-23 07:33:00,
2013-07-23 03:43:00,63.0,-99.9,-100.00,North,-999,-999.0,-999.0,-999,0.01,,,0.04,,2013-07-23 07:43:00,
2013-07-23 04:11:00,63.0,-99.9,-100.00,North,-999,-999.0,-999.0,-999,0.02,,,0.06,,2013-07-23 08:11:00,
2013-07-23 04:22:00,63.0,-99.9,-100.00,North,-999,-999.0,-999.0,-999,0.02,,,0.06,,2013-07-23 08:22:00,
2013-07-23 04:33:00,63.0,-99.9,-100.00,North,-999,-999.0,-999.0,-999,0.02,,,0.06,,2013-07-23 08:33:00,
2013-07-23 04:43:00,63.0,-99.9,-100.00,North,-999,-999.0,-999.0,-999,0.02,,,0.06,,2013-07-23 08:43:00,
2013-07-23 05:11:00,63.0,-99.9,-100.00,North,-999,-999.0,-999.0,-999,0.08,,,0.14,,2013-07-23 09:11:00,
2013-07-23 05:22:00,63.0,-99.9,-100.00,North,-999,-999.0,-999.0,-999,0.08,,,0.14,,2013-07-23 09:22:00,
2013-07-23 05:33:00,63.0,-99.9,-100.00,North,-999,-999.0,-999.0,-999,0.08,,,0.14,,2013-07-23 09:33:00,
2013-07-23 05:43:00,63.0,-99.9,-100.00,North,-999,-999.0,-999.0,-999,0.08,,,0.14,,2013-07-23 09:43:00,
2013-07-23 06:11:00,63.0,-99.9,-100.00,North,-999,-999.0,-999.0,-999,0.23,,,0.37,,2013-07-23 10:11:00,
2013-07-23 06:22:00,63.0,-99.9,-100.00,North,-999,-999.0,-999.0,-999,0.23,,,0.37,,2013-07-23 10:22:00,
2013-07-23 06:32:00,63.0,-99.9,-100.00,North,-999,-999.0,-999.0,-999,0.23,,,0.37,,2013-07-23 10:32:00,
2013-07-23 06:44:00,63.0,-99.9,-100.00,North,-999,-999.0,-999.0,-999,0.23,,,0.37,,2013-07-23 10:44:00,
2013-07-23 07:02:00,63.0,-99.9,-100.00,North,-999,-999.0,-999.0,-999,0.42,,,0.79,,2013-07-23 11:02:00,
2013-07-23 07:12:00,63.0,-99.9,-100.00,North,-999,-999.0,-999.0,-999,0.42,,,0.79,,2013-07-23 11:12:00,
2013-07-23 07:22:00,63.0,-99.9,-100.00,North,-999,-999.0,-999.0,-999,0.42,,,0.79,,2013-07-23 11:22:00,
2013-07-23 07:32:00,63.0,-99.9,-100.00,North,-999,-999.0,-999.0,-999,0.42,,,0.79,,2013-07-23 11:32:00,
2013-07-23 07:43:00,63.0,-99.9,-100.00,North,-999,-999.0,-999.0,-999,0.42,,,0.79,,2013-07-23 11:43:00,
2013-07-23 08:02:00,62.0,-99.9,-100.00,North,-999,-999.0,-999.0,-999,0.49,,,1.28,,2013-07-23 12:02:00,
2013-07-23 08:12:00,62.0,-99.9,-100.00,North,-999,-999.0,-999.0,-999,0.49,,,1.28,,2013-07-23 12:12:00,
2013-07-23 08:22:00,62.0,-99.9,-100.00,North,-999,-999.0,-999.0,-999,0.49,,,1.28,,2013-07-23 12:22:00,
2013-07-23 08:33:00,62.0,-99.9,-100.00,North,-999,-999.0,-999.0,-999,0.49,,,1.28,,2013-07-23 12:33:00,
2013-07-23 08:43:00,62.0,-99.9,-100.00,North,-999,-999.0,-999.0,-999,0.49,,,1.28,,2013-07-23 12:43:00,
2013-07-23 09:11:00,63.0,-99.9,-100.00,North,-999,-999.0,-999.0,-999,0.75,,,2.03,,2013-07-23 13:11:00,
2013-07-23 09:22:00,63.0,-99.9,-100.00,North,-999,-999.0,-999.0,-999,0.75,,,2.03,,2013-07-23 13:22:00,
2013-07-23 09:32:00,63.0,-99.9,-100.00,North,-999,-999.0,-999.0,-999,0.75,,,2.03,,2013-07-23 13:32:00,
2013-07-23 09:43:00,63.0,-99.9,-100.00,North,-999,-999.0,-999.0,-999,0.75,,,2.03,,2013-07-23 13:43:00,
2013-07-23 09:45:00,64.0,-99.9,-100.00,North,-999,-999.0,-999.0,-999,0.14,,,2.17,,2013-07-23 13:45:00,
2013-07-23 10:12:00,64.0,-99.9,-100.00,North,-999,-999.0,-999.0,-999,0.14,,,2.17,,2013-07-23 14:12:00,
2013-07-23 10:22:00,64.0,-99.9,-100.00,North,-999,-999.0,-999.0,-999,0.14,,,2.17,,2013-07-23 14:22:00,
2013-07-23 10:33:00,64.0,-99.9,-100.00,North,-999,-999.0,-999.0,-999,0.14,,,2.17,,2013-07-23 14:33:00,
2013-07-23 11:12:00,65.0,-99.9,-100.00,North,-999,-999.0,-999.0,-999,0.05,,,2.22,,2013-07-23 15:12:00,
2013-07-23 11:24:00,65.0,-99.9,-100.00,North,-999,-999.0,-999.0,-999,0.05,,,2.22,,2013-07-23 15:24:00,
2013-07-23 11:32:00,65.0,-99.9,-100.00,North,-999,-999.0,-999.0,-999,0.05,,,2.22,,2013-07-23 15:32:00,
2013-07-23 11:43:00,65.0,-99.9,-100.00,North,-999,-999.0,-999.0,-999,0.05,,,2.22,,2013-07-23 15:43:00,
2013-07-23 12:12:00,65.0,-99.9,-100.00,North,-999,-999.0,-999.0,-999,0.03,,,2.25,,2013-07-23 16:12:00,
2013-07-23 12:22:00,65.0,-99.9,-100.00,North,-999,-999.0,-999.0,-999,0.03,,,2.25,,2013-07-23 16:22:00,
2013-07-23 12:33:00,65.0,-99.9,-100.00,North,-999,-999.0,-999.0,-999,0.03,,,2.25,,2013-07-23 16:33:00,
2013-07-23 12:43:00,65.0,-99.9,-100.00,North,-999,-999.0,-999.0,-999,0.03,,,2.25,,2013-07-23 16:43:00,
2013-07-23 13:45:00,66.0,-99.9,-100.00,North,-999,-999.0,-999.0,-999,-99.99,,,2.40,,2013-07-23 17:45:00,
2013-07-23 14:07:00,66.0,-99.9,-100.00,North,-999,-999.0,-999.0,-999,-99.99,,,2.40,,2013-07-23 18:07:00,
2013-07-23 14:14:00,66.0,-99.9,-100.00,North,-999,-999.0,-999.0,-999,-99.99,,,2.40,,2013-07-23 18:14:00,
2013-07-23 14:26:00,66.0,-99.9,-100.00,North,-999,-999.0,-999.0,-999,-99.99,,,2.40,,2013-07-23 18:26:00,
2013-07-23 14:38:00,66.0,-99.9,-100.00,North,-999,-999.0,-999.0,-999,-99.99,,,2.40,,2013-07-23 18:38:00,
2013-07-23 14:45:00,67.0,-99.9,-100.00,North,-999,-999.0,-999.0,-999,0.00,,,-99.99,,2013-07-23 18:45:00,
2013-07-23 15:16:00,67.0,-99.9,-100.00,North,-999,-999.0,-999.0,-999,0.00,,,-99.99,,2013-07-23 19:16:00,
2013-07-23 15:29:00,67.0,-99.9,-100.00,North,-999,-999.0,-999.0,-999,0.00,,,-99.99,,2013-07-23 19:29:00,
2013-07-23 15:37:00,67.0,-99.9,-100.00,North,-999,-999.0,-999.0,-999,0.00,,,-99.99,,2013-07-23 19:37:00,
2013-07-23 15:45:00,67.0,-99.9,-100.00,North,-999,-999.0,-999.0,-999,0.01,,,2.41,,2013-07-23 19:45:00,
2013-07-23 16:09:00,67.0,-99.9,-100.00,North,-999,-999.0,-999.0,-999,0.01,,,2.41,,2013-07-23 20:09:00,
2013-07-23 16:16:00,67.0,-99.9,-100.00,North,-999,-999.0,-999.0,-999,0.01,,,2.41,,2013-07-23 20:16:00,
2013-07-23 16:26:00,67.0,-99.9,-100.00,North,-999,-999.0,-999.0,-999,0.01,,,2.41,,2013-07-23 20:26:00,
2013-07-23 16:45:00,68.0,-99.9,-100.00,North,-999,-999.0,-999.0,-999,0.01,,,2.42,,2013-07-23 20:45:00,
2013-07-23 17:16:00,68.0,-99.9,-100.00,North,-999,-999.0,-999.0,-999,0.01,,,2.42,,2013-07-23 21:16:00,
2013-07-23 17:25:00,68.0,-99.9,-100.00,North,-999,-999.0,-999.0,-999,0.01,,,2.42,,2013-07-23 21:25:00,
2013-07-23 17:39:00,68.0,-99.9,-100.00,North,-999,-999.0,-999.0,-999,0.01,,,2.42,,2013-07-23 21:39:00,
2013-07-23 17:45:00,69.0,-99.9,-100.00,North,-999,-999.0,-999.0,-999,0.00,,,2.42,,2013-07-23 21:45:00,
2013-07-23 18:07:00,69.0,-99.9,-100.00,North,-999,-999.0,-999.0,-999,0.00,,,2.42,,2013-07-23 22:07:00,
2013-07-23 18:14:00,69.0,-99.9,-100.00,North,-999,-999.0,-999.0,-999,0.00,,,2.42,,2013-07-23 22:14:00,
2013-07-23 18:25:00,69.0,-99.9,-100.00,North,-999,-999.0,-999.0,-999,0.00,,,2.42,,2013-07-23 22:25:00,
2013-07-23 18:37:00,69.0,-99.9,-100.00,North,-999,-999.0,-999.0,-999,0.00,,,2.42,,2013-07-23 22:37:00,
2013-07-23 19:15:00,69.0,-99.9,-100.00,North,-999,-999.0,-999.0,-999,0.00,,,2.41,,2013-07-23 23:15:00,
2013-07-23 19:27:00,69.0,-99.9,-100.00,North,-999,-999.0,-999.0,-999,0.00,,,2.41,,2013-07-23 23:27:00,
2013-07-23 19:39:00,69.0,-99.9,-100.00,North,-999,-999.0,-999.0,-999,0.00,,,2.41,,2013-07-23 23:39:00,
2013-07-23 19:45:00,68.0,-99.9,-100.00,North,-999,-999.0,-999.0,-999,0.00,,,2.41,,2013-07-23 23:45:00,
2013-07-23 20:13:00,68.0,-99.9,-100.00,North,-999,-999.0,-999.0,-999,0.00,,,2.41,,2013-07-24 00:13:00,
2013-07-23 20:27:00,68.0,-99.9,-100.00,North,-999,-999.0,-999.0,-999,0.00,,,2.41,,2013-07-24 00:27:00,
2013-07-23 20:35:00,68.0,-99.9,-100.00,North,-999,-999.0,-999.0,-999,0.00,,,2.41,,2013-07-24 00:35:00,
2013-07-23 20:45:00,67.0,-99.9,-100.00,North,-999,-999.0,-999.0,-999,0.00,,,2.41,,2013-07-24 00:45:00,
2013-07-23 21:06:00,67.0,-99.9,-100.00,North,-999,-999.0,-999.0,-999,0.00,,,2.41,,2013-07-24 01:06:00,
2013-07-23 21:25:00,67.0,-99.9,-100.00,North,-999,-999.0,-999.0,-999,0.00,,,2.41,,2013-07-24 01:25:00,
2013-07-23 21:37:00,67.0,-99.9,-100.00,North,-999,-999.0,-999.0,-999,0.00,,,2.41,,2013-07-24 01:37:00,
2013-07-23 21:45:00,65.0,-99.9,-100.00,North,-999,-999.0,-999.0,-999,0.00,,,2.41,,2013-07-24 01:45:00,
2013-07-23 22:07:00,65.0,-99.9,-100.00,North,-999,-999.0,-999.0,-999,0.00,,,2.41,,2013-07-24 02:07:00,
2013-07-23 22:19:00,65.0,-99.9,-100.00,North,-999,-999.0,-999.0,-999,0.00,,,2.41,,2013-07-24 02:19:00,
2013-07-23 22:28:00,65.0,-99.9,-100.00,North,-999,-999.0,-999.0,-999,0.00,,,2.41,,2013-07-24 02:28:00,
2013-07-23 22:41:00,65.0,-99.9,-100.00,North,-999,-999.0,-999.0,-999,0.00,,,2.41,,2013-07-24 02:41:00,
2013-07-23 22:45:00,63.0,-99.9,-100.00,North,-999,-999.0,-999.0,-999,0.00,,,2.41,,2013-07-24 02:45:00,
2013-07-23 23:15:00,63.0,-99.9,-100.00,North,-999,-999.0,-999.0,-999,0.00,,,2.41,,2013-07-24 03:15:00,
2013-07-23 23:26:00,63.0,-99.9,-100.00,North,-999,-999.0,-999.0,-999,0.00,,,2.41,,2013-07-24 03:26:00,
2013-07-23 23:40:00,63.0,-99.9,-100.00,North,-999,-999.0,-999.0,-999,0.00,,,2.41,,2013-07-24 03:40:00,